| time (UTC) | temp F | wind direction | speed MPH | gust MPH | rain 1hr in | rain 24hr in | rain mn in | humidity % | barometer mb |
| 20260901134522 | 58 | 0.0 | 0.0 | 0.00 | 0.23 | 0.00 | 93 | 1013.2 | |
| 20260901133041 | 57 | 0.0 | 0.0 | 0.00 | 0.23 | 0.00 | 92 | 1013.0 | |
| 20260901131510 | 57 | 163 | 0.0 | 0.0 | 0.00 | 0.23 | 0.00 | 92 | 1012.9 |
| 20260901130048 | 57 | 163 | 0.0 | 0.0 | 0.00 | 0.23 | 0.00 | 92 | 1012.7 |
| 20260901124505 | 57 | 163 | 0.0 | 0.0 | 0.00 | 0.23 | 0.00 | 92 | 1012.7 |
| 20260901123050 | 57 | 163 | 0.0 | 2.0 | 0.00 | 0.23 | 0.00 | 92 | 1012.5 |
| 20260901121526 | 57 | 163 | 1.0 | 3.0 | 0.00 | 0.23 | 0.00 | 92 | 1012.5 |
| 20260901120111 | 57 | 163 | 1.0 | 3.0 | 0.00 | 0.23 | 0.00 | 91 | 1012.4 |
| 20260901114530 | 57 | 163 | 1.0 | 2.0 | 0.00 | 0.23 | 0.00 | 91 | 1012.3 |
| 20260901113009 | 57 | 163 | 1.0 | 2.0 | 0.00 | 0.23 | 0.00 | 91 | 1012.2 |
| 20260901111559 | 58 | 163 | 2.0 | 6.0 | 0.00 | 0.23 | 0.00 | 91 | 1012.1 |
| 20260901110012 | 58 | 163 | 1.0 | 5.0 | 0.00 | 0.23 | 0.00 | 91 | 1012.1 |
| 20260901104601 | 58 | 163 | 1.0 | 5.0 | 0.00 | 0.23 | 0.00 | 90 | 1012.1 |
| 20260901104502 | 58 | 163 | 2.0 | 5.0 | 0.00 | 0.23 | 0.00 | 90 | 1012.1 |
| 20260901103041 | 58 | 163 | 2.0 | 5.0 | 0.00 | 0.23 | 0.00 | 90 | 1012.2 |
| 20260901101522 | 58 | 163 | 0.0 | 0.0 | 0.00 | 0.23 | 0.00 | 90 | 1012.3 |
| 20260901100108 | 58 | 163 | 0.0 | 2.0 | 0.00 | 0.23 | 0.00 | 90 | 1012.1 |
| 20260901094525 | 59 | 163 | 1.0 | 3.0 | 0.00 | 0.23 | 0.23 | 90 | 1012.2 |
| 20260901093101 | 59 | 163 | 0.0 | 0.0 | 0.00 | 0.23 | 0.23 | 90 | 1012.3 |
| 20260901093002 | 59 | 163 | 0.0 | 0.0 | 0.00 | 0.23 | 0.23 | 90 | 1012.3 |
| 20260901091553 | 59 | 163 | 0.0 | 0.0 | 0.00 | 0.23 | 0.23 | 89 | 1012.1 |
| 20260901090016 | 59 | 163 | 0.0 | 1.0 | 0.00 | 0.23 | 0.23 | 89 | 1012.1 |
| 20260901084609 | 60 | 163 | 0.0 | 0.0 | 0.00 | 0.23 | 0.23 | 89 | 1012.1 |
| 20260901083031 | 60 | 163 | 0.0 | 1.0 | 0.00 | 0.23 | 0.23 | 89 | 1012.1 |
| 20260901081517 | 60 | 164 | 0.0 | 3.0 | 0.00 | 0.23 | 0.23 | 89 | 1012.3 |
| 20260901080114 | 60 | 164 | 2.0 | 4.0 | 0.00 | 0.23 | 0.23 | 88 | 1012.3 |
| 20260901074520 | 60 | 163 | 3.0 | 5.0 | 0.00 | 0.24 | 0.23 | 88 | 1012.1 |
| 20260901073010 | 61 | 164 | 3.0 | 5.0 | 0.00 | 0.24 | 0.23 | 88 | 1012.1 |
| 20260901071554 | 61 | 164 | 2.0 | 5.0 | 0.00 | 0.24 | 0.23 | 87 | 1012.0 |
| 20260901070041 | 62 | 164 | 2.0 | 5.0 | 0.00 | 0.24 | 0.23 | 87 | 1011.9 |
| 20260901064552 | 62 | 164 | 2.0 | 7.0 | 0.00 | 0.33 | 0.23 | 87 | 1012.0 |
| 20260901063039 | 62 | 165 | 3.0 | 7.0 | 0.00 | 0.33 | 0.23 | 87 | 1011.9 |
| 20260901061518 | 62 | 165 | 4.0 | 7.0 | 0.00 | 0.33 | 0.23 | 87 | 1011.8 |
| 20260901060103 | 63 | 174 | 4.0 | 6.0 | 0.00 | 0.33 | 0.23 | 86 | 1011.7 |
| 20260901054547 | 63 | 176 | 4.0 | 8.0 | 0.00 | 0.33 | 0.23 | 86 | 1011.6 |
| 20260901053028 | 63 | 176 | 3.0 | 5.0 | 0.00 | 0.33 | 0.23 | 86 | 1011.3 |
| 20260901051506 | 63 | 176 | 4.0 | 8.0 | 0.00 | 0.33 | 0.23 | 86 | 1011.3 |
| 20260901050053 | 63 | 173 | 5.0 | 8.0 | 0.00 | 0.33 | 0.23 | 86 | 1011.3 |
| 20260901044523 | 64 | 178 | 6.0 | 8.0 | 0.00 | 0.33 | 0.23 | 86 | 1011.3 |
| 20260901043104 | 64 | 191 | 3.0 | 5.0 | 0.00 | 0.33 | 0.23 | 85 | 1011.0 |
| 20260901043001 | 64 | 191 | 3.0 | 4.0 | 0.00 | 0.33 | 0.23 | 85 | 1011.1 |
| 20260901041612 | 65 | 191 | 2.0 | 5.0 | 0.00 | 0.33 | 0.23 | 84 | 1010.7 |
| 20260901040010 | 65 | 191 | 2.0 | 4.0 | 0.00 | 0.33 | 0.23 | 84 | 1010.5 |
| 20260901034554 | 65 | 191 | 2.0 | 5.0 | 0.00 | 0.33 | 0.23 | 83 | 1010.5 |
| 20260901033040 | 66 | 194 | 2.0 | 5.0 | 0.00 | 0.33 | 0.23 | 82 | 1010.3 |
| 20260901031514 | 66 | 194 | 2.0 | 4.0 | 0.00 | 0.33 | 0.23 | 81 | 1009.9 |
| 20260901030107 | 67 | 194 | 1.0 | 3.0 | 0.00 | 0.33 | 0.23 | 81 | 1009.8 |
| 20260901024524 | 67 | 194 | 3.0 | 5.0 | 0.00 | 0.33 | 0.23 | 79 | 1009.6 |
| 20260901023103 | 67 | 194 | 2.0 | 3.0 | 0.00 | 0.33 | 0.23 | 79 | 1009.4 |
| 20260901021556 | 67 | 194 | 3.0 | 5.0 | 0.00 | 0.33 | 0.23 | 79 | 1009.3 |
| 20260901020040 | 67 | 194 | 2.0 | 5.0 | 0.00 | 0.33 | 0.23 | 80 | 1009.3 |
| 20260901014552 | 67 | 194 | 2.0 | 5.0 | 0.00 | 0.33 | 0.23 | 81 | 1009.2 |
| 20260901013038 | 67 | 196 | 3.0 | 6.0 | 0.00 | 0.33 | 0.23 | 81 | 1009.2 |
| 20260901011524 | 67 | 182 | 3.0 | 9.0 | 0.00 | 0.33 | 0.23 | 82 | 1009.3 |
| 20260901010116 | 67 | 183 | 4.0 | 8.0 | 0.00 | 0.33 | 0.23 | 83 | 1009.2 |
| 20260901004531 | 67 | 180 | 4.0 | 7.0 | 0.00 | 0.33 | 0.23 | 85 | 1009.3 |
| 20260901003019 | 67 | 182 | 6.0 | 11.0 | 0.01 | 0.33 | 0.23 | 84 | 1009.3 |
| 20260901001552 | 67 | 170 | 5.0 | 12.0 | 0.15 | 0.33 | 0.23 | 84 | 1009.1 |
| 20260901000014 | 68 | 148 | 7.0 | 12.0 | 0.23 | 0.33 | 0.23 | 84 | 1009.1 |
| 20260831234554 | 68 | 175 | 7.0 | 14.0 | 0.23 | 0.33 | 0.23 | 82 | 1009.4 |
| 20260831233048 | 70 | 136 | 11.0 | 18.0 | 0.22 | 0.32 | 0.22 | 75 | 1009.4 |
| 20260831231536 | 72 | 144 | 7.0 | 14.0 | 0.07 | 0.17 | 0.08 | 71 | 1009.7 |
| 20260831230115 | 74 | 169 | 9.0 | 18.0 | 0.00 | 0.10 | 0.00 | 61 | 1009.6 |
| 20260831224531 | 75 | 166 | 10.0 | 18.0 | 0.00 | 0.10 | 0.00 | 57 | 1009.5 |
| 20260831223009 | 76 | 180 | 12.0 | 19.0 | 0.00 | 0.10 | 0.00 | 56 | 1009.7 |
| 20260831221559 | 76 | 120 | 8.0 | 21.0 | 0.00 | 0.10 | 0.00 | 54 | 1009.6 |
| 20260831220038 | 77 | 150 | 13.0 | 19.0 | 0.00 | 0.10 | 0.00 | 53 | 1009.7 |
| 20260831214507 | 77 | 176 | 12.0 | 22.0 | 0.00 | 0.10 | 0.00 | 53 | 1009.8 |
| 20260831213053 | 77 | 360 | 12.0 | 22.0 | 0.00 | 0.10 | 0.00 | 53 | 1010.0 |
| 20260831211537 | 77 | 360 | 12.0 | 21.0 | 0.00 | 0.10 | 0.00 | 57 | 1010.2 |
| 20260831210113 | 76 | 360 | 10.0 | 21.0 | 0.00 | 0.10 | 0.00 | 58 | 1010.4 |
| 20260831204529 | 74 | 153 | 14.0 | 22.0 | 0.00 | 0.10 | 0.00 | 61 | 1010.8 |
| 20260831203007 | 73 | 148 | 12.0 | 20.0 | 0.00 | 0.10 | 0.00 | 62 | 1010.9 |
| 20260831201551 | 73 | 126 | 12.0 | 21.0 | 0.00 | 0.10 | 0.00 | 65 | 1010.8 |
| 20260831200037 | 72 | 134 | 10.0 | 20.0 | 0.00 | 0.10 | 0.00 | 67 | 1010.8 |
| 20260831194616 | 72 | 135 | 11.0 | 17.0 | 0.00 | 0.10 | 0.00 | 68 | 1011.0 |
| 20260831193034 | 72 | 181 | 9.0 | 16.0 | 0.00 | 0.10 | 0.00 | 68 | 1011.1 |
| 20260831191518 | 72 | 175 | 8.0 | 15.0 | 0.00 | 0.10 | 0.00 | 69 | 1011.2 |
| 20260831184517 | 72 | 167 | 12.0 | 20.0 | 0.00 | 0.10 | 0.00 | 69 | 1011.6 |
| 20260831183105 | 71 | 167 | 11.0 | 17.0 | 0.00 | 0.10 | 0.00 | 70 | 1011.6 |
| 20260831181543 | 71 | 167 | 13.0 | 24.0 | 0.00 | 0.10 | 0.00 | 71 | 1011.5 |
| 20260831180126 | 71 | 121 | 15.0 | 27.0 | 0.00 | 0.10 | 0.00 | 72 | 1011.3 |
| 20260831174535 | 70 | 188 | 13.0 | 22.0 | 0.00 | 0.10 | 0.00 | 74 | 1011.2 |
| 20260831173018 | 70 | 141 | 11.0 | 22.0 | 0.00 | 0.10 | 0.00 | 75 | 1011.2 |
| 20260831171553 | 69 | 165 | 15.0 | 25.0 | 0.00 | 0.10 | 0.00 | 73 | 1011.3 |
| 20260831170041 | 68 | 165 | 15.0 | 25.0 | 0.00 | 0.10 | 0.00 | 74 | 1011.1 |
| 20260831164549 | 67 | 142 | 13.0 | 25.0 | 0.00 | 0.10 | 0.00 | 74 | 1011.1 |
| 20260831163031 | 66 | 121 | 13.0 | 23.0 | 0.00 | 0.10 | 0.00 | 77 | 1010.9 |
| 20260831161505 | 65 | 164 | 13.0 | 21.0 | 0.00 | 0.10 | 0.00 | 80 | 1010.7 |
| 20260831160051 | 64 | 143 | 11.0 | 23.0 | 0.00 | 0.10 | 0.00 | 79 | 1010.6 |
| 20260831154601 | 64 | 112 | 11.0 | 19.0 | 0.00 | 0.10 | 0.00 | 80 | 1010.4 |
| 20260831154509 | 64 | 157 | 11.0 | 19.0 | 0.00 | 0.10 | 0.00 | 80 | 1010.3 |
| 20260831153050 | 64 | 176 | 6.0 | 10.0 | 0.00 | 0.10 | 0.00 | 80 | 1010.4 |
| 20260831151531 | 64 | 120 | 7.0 | 11.0 | 0.00 | 0.10 | 0.00 | 83 | 1009.8 |
| 20260831144518 | 61 | 186 | 1.0 | 3.0 | 0.00 | 0.10 | 0.00 | 90 | 1010.1 |
| 20260831143101 | 60 | 186 | 0.0 | 3.0 | 0.00 | 0.10 | 0.00 | 90 | 1010.0 |
| 20260831143002 | 60 | 186 | 0.0 | 3.0 | 0.00 | 0.10 | 0.00 | 90 | 1010.0 |
| 20260831141538 | 59 | 186 | 0.0 | 3.0 | 0.00 | 0.10 | 0.00 | 90 | 1009.8 |
| 20260831140114 | 59 | 186 | 1.0 | 4.0 | 0.00 | 0.10 | 0.00 | 90 | 1009.4 |